Portada
METAR-TAF:

METAR-TAF

Aeroports :

Conyac, França

latitud: 45-40N, longitud: 000-19W, altitud: 30 m

Observació

L'informe es va fer fa 29 minuts, a les 15:00 UTC
Vent 13 kt del Oest/Sud-Oest, variant entre Sud/Sud-Oest i Oest
Temperatura 13°C
Humitat 58%
Pressió 1031 hPa
Visibilitat 10 km o més

METAR: LFBG 181500Z AUTO 25013KT 210V280 9999 FEW033/// BKN049/// OVC058/// ///TCU 13/05 Q1031 TEMPO 4000 -SHRA

Hora: 16:29 (15:29 UTC)

Pronòstic

L'informe es va fer fa 1 hora i 29 minuts, a les 14:00 UTC
Pronòstic vàlid del 18 a les 15 UTC al 19 a les 15 UTC
Vent 7 kt del Oest/Sud-Oest
Visibilitat 10 km o més
Cel ennuvolat a una alçada de 4000 ft
Temporalment
l' 18 a les 15 UTC al 18 a les 18 UTC
Vent 12 kt del Oest amb ràfegues de 22 kt
Visibilitat: 4000 m
Cel ennuvolat a una alçada de 2000 ft, Cumulus congestus.
xàfecs de pluja

TAF: LFBG 181400Z 1815/1915 24007KT 9999 BKN040 TEMPO 1815/1818 26012G22KT 4000 -SHRA BKN020TCU

Observacions i pronòstics meteorològics de més de 4000 aeroports (METAR i TAF).

Les estacions disponibles són els punts grocs i vermells al mapa.

Posi el ratolí al punt desitjat per veure el nom de l'estació.

Feu clic per veure les observacions i els pronòstics meteorològics.

Per canviar el mapa: feu clic els botons verds amb una creu de color negre per apropar; al botó verd amb un guió per allunyar la imatge; o en les fletxes verdes per a mapes adjacents.


METAR-TAF: